<?xml version="1.0" encoding="UTF-8" standalone="no" ?>
<gpx xmlns="http://www.topografix.com/GPX/1/1" xmlns:xsi="http://www.w3.org/2001/XMLSchema-instance" xsi:schemaLocation="http://www.topografix.com/GPX/1/1 http://www.topografix.com/GPX/1/1/gpx.xsd" version="1.1" creator="VisuGPX - https://www.visugpx.com">
  <metadata>
    <name>Le chemin des cascades</name>
  </metadata>
  <wpt lat="42.87407" lon="-0.10911">
    <ele>1036</ele>
    <name><![CDATA[Parking]]></name>
    <type><![CDATA[GENERIC]]></type>
  </wpt>
  <wpt lat="42.85104" lon="-0.13979">
    <ele>1490</ele>
    <name><![CDATA[Hôtellerie]]></name>
    <type><![CDATA[GENERIC]]></type>
  </wpt>
  <wpt lat="42.85513" lon="-0.13239">
    <ele>1443</ele>
    <name><![CDATA[]]></name>
    <type><![CDATA[GENERIC]]></type>
  </wpt>
  <wpt lat="42.85783" lon="-0.12706">
    <ele>1370</ele>
    <name><![CDATA[Pont de Boussès]]></name>
    <type><![CDATA[GENERIC]]></type>
  </wpt>
  <wpt lat="42.85969" lon="-0.12441">
    <ele>1350</ele>
    <name><![CDATA[]]></name>
    <type><![CDATA[GENERIC]]></type>
  </wpt>
  <wpt lat="42.86169" lon="-0.12364">
    <ele>1328</ele>
    <name><![CDATA[Cascade de Pouey Bacou]]></name>
    <type><![CDATA[GENERIC]]></type>
  </wpt>
  <wpt lat="42.86259" lon="-0.11934">
    <ele>1258</ele>
    <name><![CDATA[]]></name>
    <type><![CDATA[GENERIC]]></type>
  </wpt>
  <wpt lat="42.866" lon="-0.11676">
    <ele>1207</ele>
    <name><![CDATA[Cascade d'Escane Gat]]></name>
    <type><![CDATA[GENERIC]]></type>
  </wpt>
  <wpt lat="42.87406" lon="-0.10913">
    <ele>1036</ele>
    <name><![CDATA[Parking]]></name>
    <type><![CDATA[GENERIC]]></type>
  </wpt>
  <trk>
    <name><![CDATA[Le chemin des cascades de la Raillère à l'hôtellerie du Pont d'Espagne]]></name>
    <trkseg>
      <trkpt lat="42.87406" lon="-0.10913">
        <ele>1036</ele>
        <time>2025-03-20T07:54:02.000Z</time>
      </trkpt>
      <trkpt lat="42.87409" lon="-0.10954">
        <ele>1039</ele>
        <time>2025-03-20T07:55:07.000Z</time>
      </trkpt>
      <trkpt lat="42.87408" lon="-0.10973">
        <ele>1042</ele>
        <time>2025-03-20T07:55:54.000Z</time>
      </trkpt>
      <trkpt lat="42.87376" lon="-0.10941">
        <ele>1041</ele>
        <time>2025-03-20T07:56:40.000Z</time>
      </trkpt>
      <trkpt lat="42.87359" lon="-0.10931">
        <ele>1041</ele>
        <time>2025-03-20T07:57:01.000Z</time>
      </trkpt>
      <trkpt lat="42.87331" lon="-0.10928">
        <ele>1040</ele>
        <time>2025-03-20T07:57:34.000Z</time>
      </trkpt>
      <trkpt lat="42.8729" lon="-0.10949">
        <ele>1041</ele>
        <time>2025-03-20T07:58:34.000Z</time>
      </trkpt>
      <trkpt lat="42.87239" lon="-0.10959">
        <ele>1041</ele>
        <time>2025-03-20T07:59:33.000Z</time>
      </trkpt>
      <trkpt lat="42.87227" lon="-0.10993">
        <ele>1048</ele>
        <time>2025-03-20T08:01:17.000Z</time>
      </trkpt>
      <trkpt lat="42.8723" lon="-0.11006">
        <ele>1051</ele>
        <time>2025-03-20T08:01:59.000Z</time>
      </trkpt>
      <trkpt lat="42.87234" lon="-0.11024">
        <ele>1056</ele>
        <time>2025-03-20T08:03:07.000Z</time>
      </trkpt>
      <trkpt lat="42.87226" lon="-0.11054">
        <ele>1061</ele>
        <time>2025-03-20T08:04:25.000Z</time>
      </trkpt>
      <trkpt lat="42.87209" lon="-0.1107">
        <ele>1062</ele>
        <time>2025-03-20T08:05:00.000Z</time>
      </trkpt>
      <trkpt lat="42.87201" lon="-0.11077">
        <ele>1062</ele>
        <time>2025-03-20T08:05:11.000Z</time>
      </trkpt>
      <trkpt lat="42.87192" lon="-0.11102">
        <ele>1067</ele>
        <time>2025-03-20T08:06:26.000Z</time>
      </trkpt>
      <trkpt lat="42.87173" lon="-0.11123">
        <ele>1069</ele>
        <time>2025-03-20T08:07:15.000Z</time>
      </trkpt>
      <trkpt lat="42.87191" lon="-0.11121">
        <ele>1072</ele>
        <time>2025-03-20T08:08:07.000Z</time>
      </trkpt>
      <trkpt lat="42.87192" lon="-0.1113">
        <ele>1077</ele>
        <time>2025-03-20T08:09:06.000Z</time>
      </trkpt>
      <trkpt lat="42.87166" lon="-0.11154">
        <ele>1081</ele>
        <time>2025-03-20T08:10:23.000Z</time>
      </trkpt>
      <trkpt lat="42.87152" lon="-0.1117">
        <ele>1086</ele>
        <time>2025-03-20T08:11:35.000Z</time>
      </trkpt>
      <trkpt lat="42.8714" lon="-0.11181">
        <ele>1088</ele>
        <time>2025-03-20T08:12:12.000Z</time>
      </trkpt>
      <trkpt lat="42.87133" lon="-0.11189">
        <ele>1090</ele>
        <time>2025-03-20T08:12:44.000Z</time>
      </trkpt>
      <trkpt lat="42.87122" lon="-0.11191">
        <ele>1090</ele>
        <time>2025-03-20T08:12:56.000Z</time>
      </trkpt>
      <trkpt lat="42.87105" lon="-0.11185">
        <ele>1087</ele>
        <time>2025-03-20T08:13:17.000Z</time>
      </trkpt>
      <trkpt lat="42.87067" lon="-0.11226">
        <ele>1105</ele>
        <time>2025-03-20T08:17:18.000Z</time>
      </trkpt>
      <trkpt lat="42.87059" lon="-0.11238">
        <ele>1107</ele>
        <time>2025-03-20T08:17:53.000Z</time>
      </trkpt>
      <trkpt lat="42.87037" lon="-0.11253">
        <ele>1113</ele>
        <time>2025-03-20T08:19:22.000Z</time>
      </trkpt>
      <trkpt lat="42.8703" lon="-0.11258">
        <ele>1114</ele>
        <time>2025-03-20T08:19:42.000Z</time>
      </trkpt>
      <trkpt lat="42.87028" lon="-0.11272">
        <ele>1118</ele>
        <time>2025-03-20T08:20:35.000Z</time>
      </trkpt>
      <trkpt lat="42.87034" lon="-0.11288">
        <ele>1121</ele>
        <time>2025-03-20T08:21:21.000Z</time>
      </trkpt>
      <trkpt lat="42.87036" lon="-0.113">
        <ele>1125</ele>
        <time>2025-03-20T08:22:13.000Z</time>
      </trkpt>
      <trkpt lat="42.87031" lon="-0.11315">
        <ele>1128</ele>
        <time>2025-03-20T08:22:57.000Z</time>
      </trkpt>
      <trkpt lat="42.87022" lon="-0.11328">
        <ele>1129</ele>
        <time>2025-03-20T08:23:22.000Z</time>
      </trkpt>
      <trkpt lat="42.86997" lon="-0.11352">
        <ele>1131</ele>
        <time>2025-03-20T08:24:18.000Z</time>
      </trkpt>
      <trkpt lat="42.86982" lon="-0.11365">
        <ele>1130</ele>
        <time>2025-03-20T08:24:38.000Z</time>
      </trkpt>
      <trkpt lat="42.86973" lon="-0.11376">
        <ele>1131</ele>
        <time>2025-03-20T08:25:02.000Z</time>
      </trkpt>
      <trkpt lat="42.86961" lon="-0.11385">
        <ele>1132</ele>
        <time>2025-03-20T08:25:28.000Z</time>
      </trkpt>
      <trkpt lat="42.86943" lon="-0.11393">
        <ele>1133</ele>
        <time>2025-03-20T08:26:01.000Z</time>
      </trkpt>
      <trkpt lat="42.86909" lon="-0.11402">
        <ele>1134</ele>
        <time>2025-03-20T08:26:50.000Z</time>
      </trkpt>
      <trkpt lat="42.86877" lon="-0.11407">
        <ele>1137</ele>
        <time>2025-03-20T08:27:58.000Z</time>
      </trkpt>
      <trkpt lat="42.86865" lon="-0.11409">
        <ele>1138</ele>
        <time>2025-03-20T08:28:22.000Z</time>
      </trkpt>
      <trkpt lat="42.86857" lon="-0.1142">
        <ele>1142</ele>
        <time>2025-03-20T08:29:17.000Z</time>
      </trkpt>
      <trkpt lat="42.8685" lon="-0.11424">
        <ele>1145</ele>
        <time>2025-03-20T08:29:56.000Z</time>
      </trkpt>
      <trkpt lat="42.86841" lon="-0.11426">
        <ele>1146</ele>
        <time>2025-03-20T08:30:17.000Z</time>
      </trkpt>
      <trkpt lat="42.86835" lon="-0.11427">
        <ele>1145</ele>
        <time>2025-03-20T08:30:25.000Z</time>
      </trkpt>
      <trkpt lat="42.86826" lon="-0.11432">
        <ele>1147</ele>
        <time>2025-03-20T08:30:57.000Z</time>
      </trkpt>
      <trkpt lat="42.86821" lon="-0.11448">
        <ele>1154</ele>
        <time>2025-03-20T08:32:23.000Z</time>
      </trkpt>
      <trkpt lat="42.86817" lon="-0.11453">
        <ele>1155</ele>
        <time>2025-03-20T08:32:40.000Z</time>
      </trkpt>
      <trkpt lat="42.86814" lon="-0.11457">
        <ele>1156</ele>
        <time>2025-03-20T08:32:55.000Z</time>
      </trkpt>
      <trkpt lat="42.86803" lon="-0.11453">
        <ele>1156</ele>
        <time>2025-03-20T08:33:08.000Z</time>
      </trkpt>
      <trkpt lat="42.86795" lon="-0.11451">
        <ele>1154</ele>
        <time>2025-03-20T08:33:17.000Z</time>
      </trkpt>
      <trkpt lat="42.86785" lon="-0.11451">
        <ele>1155</ele>
        <time>2025-03-20T08:33:39.000Z</time>
      </trkpt>
      <trkpt lat="42.86776" lon="-0.11448">
        <ele>1155</ele>
        <time>2025-03-20T08:33:50.000Z</time>
      </trkpt>
      <trkpt lat="42.86759" lon="-0.11473">
        <ele>1160</ele>
        <time>2025-03-20T08:35:10.000Z</time>
      </trkpt>
      <trkpt lat="42.86757" lon="-0.11484">
        <ele>1163</ele>
        <time>2025-03-20T08:35:50.000Z</time>
      </trkpt>
      <trkpt lat="42.86749" lon="-0.11494">
        <ele>1164</ele>
        <time>2025-03-20T08:36:12.000Z</time>
      </trkpt>
      <trkpt lat="42.86746" lon="-0.115">
        <ele>1165</ele>
        <time>2025-03-20T08:36:29.000Z</time>
      </trkpt>
      <trkpt lat="42.86747" lon="-0.11516">
        <ele>1170</ele>
        <time>2025-03-20T08:37:34.000Z</time>
      </trkpt>
      <trkpt lat="42.86741" lon="-0.11521">
        <ele>1170</ele>
        <time>2025-03-20T08:37:41.000Z</time>
      </trkpt>
      <trkpt lat="42.86734" lon="-0.11532">
        <ele>1172</ele>
        <time>2025-03-20T08:38:13.000Z</time>
      </trkpt>
      <trkpt lat="42.8673" lon="-0.11549">
        <ele>1175</ele>
        <time>2025-03-20T08:38:59.000Z</time>
      </trkpt>
      <trkpt lat="42.86725" lon="-0.1156">
        <ele>1177</ele>
        <time>2025-03-20T08:39:31.000Z</time>
      </trkpt>
      <trkpt lat="42.86717" lon="-0.11573">
        <ele>1178</ele>
        <time>2025-03-20T08:39:55.000Z</time>
      </trkpt>
      <trkpt lat="42.86701" lon="-0.11586">
        <ele>1175</ele>
        <time>2025-03-20T08:40:16.000Z</time>
      </trkpt>
      <trkpt lat="42.86697" lon="-0.11595">
        <ele>1179</ele>
        <time>2025-03-20T08:41:06.000Z</time>
      </trkpt>
      <trkpt lat="42.86691" lon="-0.11607">
        <ele>1180</ele>
        <time>2025-03-20T08:41:29.000Z</time>
      </trkpt>
      <trkpt lat="42.8668" lon="-0.11618">
        <ele>1182</ele>
        <time>2025-03-20T08:42:05.000Z</time>
      </trkpt>
      <trkpt lat="42.86672" lon="-0.11627">
        <ele>1184</ele>
        <time>2025-03-20T08:42:38.000Z</time>
      </trkpt>
      <trkpt lat="42.86659" lon="-0.11628">
        <ele>1182</ele>
        <time>2025-03-20T08:42:53.000Z</time>
      </trkpt>
      <trkpt lat="42.86655" lon="-0.11628">
        <ele>1182</ele>
        <time>2025-03-20T08:42:57.000Z</time>
      </trkpt>
      <trkpt lat="42.86647" lon="-0.11646">
        <ele>1191</ele>
        <time>2025-03-20T08:44:47.000Z</time>
      </trkpt>
      <trkpt lat="42.86634" lon="-0.11651">
        <ele>1194</ele>
        <time>2025-03-20T08:45:34.000Z</time>
      </trkpt>
      <trkpt lat="42.86617" lon="-0.11669">
        <ele>1203</ele>
        <time>2025-03-20T08:47:31.000Z</time>
      </trkpt>
      <trkpt lat="42.866" lon="-0.11676">
        <ele>1207</ele>
        <time>2025-03-20T08:48:32.000Z</time>
      </trkpt>
      <trkpt lat="42.86584" lon="-0.11678">
        <ele>1204</ele>
        <time>2025-03-20T08:48:51.000Z</time>
      </trkpt>
      <trkpt lat="42.86564" lon="-0.11674">
        <ele>1200</ele>
        <time>2025-03-20T08:49:14.000Z</time>
      </trkpt>
      <trkpt lat="42.86559" lon="-0.11687">
        <ele>1205</ele>
        <time>2025-03-20T08:50:17.000Z</time>
      </trkpt>
      <trkpt lat="42.86552" lon="-0.11705">
        <ele>1212</ele>
        <time>2025-03-20T08:51:47.000Z</time>
      </trkpt>
      <trkpt lat="42.86548" lon="-0.11709">
        <ele>1211</ele>
        <time>2025-03-20T08:51:52.000Z</time>
      </trkpt>
      <trkpt lat="42.86544" lon="-0.11727">
        <ele>1216</ele>
        <time>2025-03-20T08:52:59.000Z</time>
      </trkpt>
      <trkpt lat="42.8654" lon="-0.11753">
        <ele>1229</ele>
        <time>2025-03-20T08:55:35.000Z</time>
      </trkpt>
      <trkpt lat="42.86525" lon="-0.11762">
        <ele>1221</ele>
        <time>2025-03-20T08:55:54.000Z</time>
      </trkpt>
      <trkpt lat="42.86518" lon="-0.11777">
        <ele>1223</ele>
        <time>2025-03-20T08:56:29.000Z</time>
      </trkpt>
      <trkpt lat="42.8652" lon="-0.11785">
        <ele>1227</ele>
        <time>2025-03-20T08:57:17.000Z</time>
      </trkpt>
      <trkpt lat="42.86521" lon="-0.11794">
        <ele>1231</ele>
        <time>2025-03-20T08:58:06.000Z</time>
      </trkpt>
      <trkpt lat="42.86513" lon="-0.11827">
        <ele>1238</ele>
        <time>2025-03-20T08:59:47.000Z</time>
      </trkpt>
      <trkpt lat="42.86497" lon="-0.11844">
        <ele>1241</ele>
        <time>2025-03-20T09:00:41.000Z</time>
      </trkpt>
      <trkpt lat="42.86493" lon="-0.11848">
        <ele>1242</ele>
        <time>2025-03-20T09:00:57.000Z</time>
      </trkpt>
      <trkpt lat="42.86469" lon="-0.11844">
        <ele>1230</ele>
        <time>2025-03-20T09:01:25.000Z</time>
      </trkpt>
      <trkpt lat="42.86459" lon="-0.11842">
        <ele>1225</ele>
        <time>2025-03-20T09:01:36.000Z</time>
      </trkpt>
      <trkpt lat="42.86454" lon="-0.11841">
        <ele>1223</ele>
        <time>2025-03-20T09:01:42.000Z</time>
      </trkpt>
      <trkpt lat="42.86446" lon="-0.11836">
        <ele>1220</ele>
        <time>2025-03-20T09:01:52.000Z</time>
      </trkpt>
      <trkpt lat="42.86429" lon="-0.1185">
        <ele>1224</ele>
        <time>2025-03-20T09:02:56.000Z</time>
      </trkpt>
      <trkpt lat="42.86429" lon="-0.11865">
        <ele>1227</ele>
        <time>2025-03-20T09:03:39.000Z</time>
      </trkpt>
      <trkpt lat="42.86428" lon="-0.11869">
        <ele>1228</ele>
        <time>2025-03-20T09:03:53.000Z</time>
      </trkpt>
      <trkpt lat="42.8641" lon="-0.11879">
        <ele>1229</ele>
        <time>2025-03-20T09:04:25.000Z</time>
      </trkpt>
      <trkpt lat="42.86397" lon="-0.11896">
        <ele>1233</ele>
        <time>2025-03-20T09:05:26.000Z</time>
      </trkpt>
      <trkpt lat="42.86391" lon="-0.11905">
        <ele>1235</ele>
        <time>2025-03-20T09:05:57.000Z</time>
      </trkpt>
      <trkpt lat="42.86405" lon="-0.11912">
        <ele>1239</ele>
        <time>2025-03-20T09:06:55.000Z</time>
      </trkpt>
      <trkpt lat="42.86414" lon="-0.11915">
        <ele>1240</ele>
        <time>2025-03-20T09:07:15.000Z</time>
      </trkpt>
      <trkpt lat="42.86413" lon="-0.11924">
        <ele>1245</ele>
        <time>2025-03-20T09:08:15.000Z</time>
      </trkpt>
      <trkpt lat="42.8641" lon="-0.11929">
        <ele>1246</ele>
        <time>2025-03-20T09:08:30.000Z</time>
      </trkpt>
      <trkpt lat="42.86399" lon="-0.11936">
        <ele>1249</ele>
        <time>2025-03-20T09:09:15.000Z</time>
      </trkpt>
      <trkpt lat="42.86393" lon="-0.11934">
        <ele>1246</ele>
        <time>2025-03-20T09:09:22.000Z</time>
      </trkpt>
      <trkpt lat="42.86387" lon="-0.11945">
        <ele>1250</ele>
        <time>2025-03-20T09:10:14.000Z</time>
      </trkpt>
      <trkpt lat="42.8637" lon="-0.11948">
        <ele>1249</ele>
        <time>2025-03-20T09:10:33.000Z</time>
      </trkpt>
      <trkpt lat="42.86351" lon="-0.11955">
        <ele>1249</ele>
        <time>2025-03-20T09:10:56.000Z</time>
      </trkpt>
      <trkpt lat="42.86347" lon="-0.11956">
        <ele>1248</ele>
        <time>2025-03-20T09:11:01.000Z</time>
      </trkpt>
      <trkpt lat="42.86345" lon="-0.11967">
        <ele>1250</ele>
        <time>2025-03-20T09:11:31.000Z</time>
      </trkpt>
      <trkpt lat="42.86336" lon="-0.1199">
        <ele>1258</ele>
        <time>2025-03-20T09:13:15.000Z</time>
      </trkpt>
      <trkpt lat="42.86334" lon="-0.12014">
        <ele>1265</ele>
        <time>2025-03-20T09:14:47.000Z</time>
      </trkpt>
      <trkpt lat="42.86331" lon="-0.12024">
        <ele>1269</ele>
        <time>2025-03-20T09:15:37.000Z</time>
      </trkpt>
      <trkpt lat="42.86322" lon="-0.12036">
        <ele>1271</ele>
        <time>2025-03-20T09:16:12.000Z</time>
      </trkpt>
      <trkpt lat="42.86315" lon="-0.12056">
        <ele>1274</ele>
        <time>2025-03-20T09:17:01.000Z</time>
      </trkpt>
      <trkpt lat="42.86287" lon="-0.12063">
        <ele>1268</ele>
        <time>2025-03-20T09:17:34.000Z</time>
      </trkpt>
      <trkpt lat="42.86274" lon="-0.12055">
        <ele>1263</ele>
        <time>2025-03-20T09:17:51.000Z</time>
      </trkpt>
      <trkpt lat="42.86259" lon="-0.11934">
        <ele>1258</ele>
        <time>2025-03-20T09:19:35.000Z</time>
      </trkpt>
      <trkpt lat="42.86274" lon="-0.12063">
        <ele>1264</ele>
        <time>2025-03-20T09:22:27.000Z</time>
      </trkpt>
      <trkpt lat="42.86304" lon="-0.12085">
        <ele>1277</ele>
        <time>2025-03-20T09:25:19.000Z</time>
      </trkpt>
      <trkpt lat="42.86293" lon="-0.12112">
        <ele>1280</ele>
        <time>2025-03-20T09:26:15.000Z</time>
      </trkpt>
      <trkpt lat="42.86289" lon="-0.12113">
        <ele>1279</ele>
        <time>2025-03-20T09:26:19.000Z</time>
      </trkpt>
      <trkpt lat="42.86285" lon="-0.12116">
        <ele>1278</ele>
        <time>2025-03-20T09:26:25.000Z</time>
      </trkpt>
      <trkpt lat="42.86277" lon="-0.12128">
        <ele>1277</ele>
        <time>2025-03-20T09:26:38.000Z</time>
      </trkpt>
      <trkpt lat="42.86279" lon="-0.12154">
        <ele>1280</ele>
        <time>2025-03-20T09:27:31.000Z</time>
      </trkpt>
      <trkpt lat="42.86284" lon="-0.12158">
        <ele>1282</ele>
        <time>2025-03-20T09:27:59.000Z</time>
      </trkpt>
      <trkpt lat="42.86281" lon="-0.12172">
        <ele>1282</ele>
        <time>2025-03-20T09:28:11.000Z</time>
      </trkpt>
      <trkpt lat="42.86282" lon="-0.12216">
        <ele>1290</ele>
        <time>2025-03-20T09:30:10.000Z</time>
      </trkpt>
      <trkpt lat="42.86267" lon="-0.12231">
        <ele>1290</ele>
        <time>2025-03-20T09:30:32.000Z</time>
      </trkpt>
      <trkpt lat="42.86249" lon="-0.12243">
        <ele>1290</ele>
        <time>2025-03-20T09:30:54.000Z</time>
      </trkpt>
      <trkpt lat="42.86245" lon="-0.12249">
        <ele>1291</ele>
        <time>2025-03-20T09:31:11.000Z</time>
      </trkpt>
      <trkpt lat="42.86235" lon="-0.12247">
        <ele>1290</ele>
        <time>2025-03-20T09:31:23.000Z</time>
      </trkpt>
      <trkpt lat="42.86241" lon="-0.1226">
        <ele>1293</ele>
        <time>2025-03-20T09:32:07.000Z</time>
      </trkpt>
      <trkpt lat="42.86238" lon="-0.12269">
        <ele>1296</ele>
        <time>2025-03-20T09:32:47.000Z</time>
      </trkpt>
      <trkpt lat="42.86229" lon="-0.12276">
        <ele>1299</ele>
        <time>2025-03-20T09:33:29.000Z</time>
      </trkpt>
      <trkpt lat="42.86238" lon="-0.12313">
        <ele>1315</ele>
        <time>2025-03-20T09:36:46.000Z</time>
      </trkpt>
      <trkpt lat="42.86229" lon="-0.12325">
        <ele>1315</ele>
        <time>2025-03-20T09:37:01.000Z</time>
      </trkpt>
      <trkpt lat="42.86213" lon="-0.12341">
        <ele>1318</ele>
        <time>2025-03-20T09:37:54.000Z</time>
      </trkpt>
      <trkpt lat="42.8618" lon="-0.12352">
        <ele>1319</ele>
        <time>2025-03-20T09:38:43.000Z</time>
      </trkpt>
      <trkpt lat="42.86173" lon="-0.12356">
        <ele>1320</ele>
        <time>2025-03-20T09:39:01.000Z</time>
      </trkpt>
      <trkpt lat="42.86169" lon="-0.12364">
        <ele>1328</ele>
        <time>2025-03-20T09:40:32.000Z</time>
      </trkpt>
      <trkpt lat="42.86114" lon="-0.12357">
        <ele>1326</ele>
        <time>2025-03-20T09:41:34.000Z</time>
      </trkpt>
      <trkpt lat="42.86101" lon="-0.12365">
        <ele>1330</ele>
        <time>2025-03-20T09:42:32.000Z</time>
      </trkpt>
      <trkpt lat="42.86088" lon="-0.12365">
        <ele>1332</ele>
        <time>2025-03-20T09:43:07.000Z</time>
      </trkpt>
      <trkpt lat="42.8607" lon="-0.12388">
        <ele>1337</ele>
        <time>2025-03-20T09:44:27.000Z</time>
      </trkpt>
      <trkpt lat="42.86063" lon="-0.12399">
        <ele>1340</ele>
        <time>2025-03-20T09:45:10.000Z</time>
      </trkpt>
      <trkpt lat="42.86057" lon="-0.12431">
        <ele>1350</ele>
        <time>2025-03-20T09:47:21.000Z</time>
      </trkpt>
      <trkpt lat="42.86055" lon="-0.1244">
        <ele>1354</ele>
        <time>2025-03-20T09:48:10.000Z</time>
      </trkpt>
      <trkpt lat="42.8605" lon="-0.12456">
        <ele>1360</ele>
        <time>2025-03-20T09:49:26.000Z</time>
      </trkpt>
      <trkpt lat="42.86041" lon="-0.12471">
        <ele>1364</ele>
        <time>2025-03-20T09:50:23.000Z</time>
      </trkpt>
      <trkpt lat="42.8603" lon="-0.12475">
        <ele>1363</ele>
        <time>2025-03-20T09:50:36.000Z</time>
      </trkpt>
      <trkpt lat="42.8602" lon="-0.12481">
        <ele>1362</ele>
        <time>2025-03-20T09:50:48.000Z</time>
      </trkpt>
      <trkpt lat="42.86011" lon="-0.12494">
        <ele>1366</ele>
        <time>2025-03-20T09:51:44.000Z</time>
      </trkpt>
      <trkpt lat="42.85997" lon="-0.12489">
        <ele>1361</ele>
        <time>2025-03-20T09:52:01.000Z</time>
      </trkpt>
      <trkpt lat="42.85974" lon="-0.12473">
        <ele>1354</ele>
        <time>2025-03-20T09:52:31.000Z</time>
      </trkpt>
      <trkpt lat="42.85969" lon="-0.12441">
        <ele>1350</ele>
        <time>2025-03-20T09:52:58.000Z</time>
      </trkpt>
      <trkpt lat="42.85965" lon="-0.12487">
        <ele>1356</ele>
        <time>2025-03-20T09:54:39.000Z</time>
      </trkpt>
      <trkpt lat="42.85955" lon="-0.12505">
        <ele>1358</ele>
        <time>2025-03-20T09:55:18.000Z</time>
      </trkpt>
      <trkpt lat="42.85951" lon="-0.12521">
        <ele>1360</ele>
        <time>2025-03-20T09:55:53.000Z</time>
      </trkpt>
      <trkpt lat="42.85945" lon="-0.12531">
        <ele>1360</ele>
        <time>2025-03-20T09:56:04.000Z</time>
      </trkpt>
      <trkpt lat="42.85934" lon="-0.12544">
        <ele>1361</ele>
        <time>2025-03-20T09:56:31.000Z</time>
      </trkpt>
      <trkpt lat="42.85919" lon="-0.1256">
        <ele>1362</ele>
        <time>2025-03-20T09:57:03.000Z</time>
      </trkpt>
      <trkpt lat="42.85914" lon="-0.12582">
        <ele>1364</ele>
        <time>2025-03-20T09:57:43.000Z</time>
      </trkpt>
      <trkpt lat="42.85913" lon="-0.12587">
        <ele>1364</ele>
        <time>2025-03-20T09:57:47.000Z</time>
      </trkpt>
      <trkpt lat="42.85896" lon="-0.12598">
        <ele>1364</ele>
        <time>2025-03-20T09:58:09.000Z</time>
      </trkpt>
      <trkpt lat="42.85876" lon="-0.12633">
        <ele>1369</ele>
        <time>2025-03-20T09:59:38.000Z</time>
      </trkpt>
      <trkpt lat="42.85865" lon="-0.12646">
        <ele>1369</ele>
        <time>2025-03-20T09:59:54.000Z</time>
      </trkpt>
      <trkpt lat="42.85861" lon="-0.12652">
        <ele>1371</ele>
        <time>2025-03-20T10:00:22.000Z</time>
      </trkpt>
      <trkpt lat="42.8585" lon="-0.12655">
        <ele>1368</ele>
        <time>2025-03-20T10:00:34.000Z</time>
      </trkpt>
      <trkpt lat="42.8584" lon="-0.12679">
        <ele>1370</ele>
        <time>2025-03-20T10:01:18.000Z</time>
      </trkpt>
      <trkpt lat="42.85829" lon="-0.1269">
        <ele>1370</ele>
        <time>2025-03-20T10:01:34.000Z</time>
      </trkpt>
      <trkpt lat="42.85804" lon="-0.12726">
        <ele>1374</ele>
        <time>2025-03-20T10:02:56.000Z</time>
      </trkpt>
      <trkpt lat="42.85789" lon="-0.12726">
        <ele>1372</ele>
        <time>2025-03-20T10:03:13.000Z</time>
      </trkpt>
      <trkpt lat="42.85783" lon="-0.12706">
        <ele>1370</ele>
        <time>2025-03-20T10:03:31.000Z</time>
      </trkpt>
      <trkpt lat="42.85779" lon="-0.1273">
        <ele>1373</ele>
        <time>2025-03-20T10:04:23.000Z</time>
      </trkpt>
      <trkpt lat="42.85782" lon="-0.12736">
        <ele>1374</ele>
        <time>2025-03-20T10:04:40.000Z</time>
      </trkpt>
      <trkpt lat="42.85764" lon="-0.12768">
        <ele>1380</ele>
        <time>2025-03-20T10:06:15.000Z</time>
      </trkpt>
      <trkpt lat="42.85741" lon="-0.12793">
        <ele>1386</ele>
        <time>2025-03-20T10:07:50.000Z</time>
      </trkpt>
      <trkpt lat="42.85726" lon="-0.12814">
        <ele>1385</ele>
        <time>2025-03-20T10:08:15.000Z</time>
      </trkpt>
      <trkpt lat="42.85709" lon="-0.12852">
        <ele>1384</ele>
        <time>2025-03-20T10:08:52.000Z</time>
      </trkpt>
      <trkpt lat="42.857" lon="-0.12875">
        <ele>1385</ele>
        <time>2025-03-20T10:09:24.000Z</time>
      </trkpt>
      <trkpt lat="42.85693" lon="-0.12901">
        <ele>1385</ele>
        <time>2025-03-20T10:09:47.000Z</time>
      </trkpt>
      <trkpt lat="42.85666" lon="-0.1293">
        <ele>1387</ele>
        <time>2025-03-20T10:10:47.000Z</time>
      </trkpt>
      <trkpt lat="42.85651" lon="-0.12944">
        <ele>1388</ele>
        <time>2025-03-20T10:11:18.000Z</time>
      </trkpt>
      <trkpt lat="42.85638" lon="-0.12957">
        <ele>1390</ele>
        <time>2025-03-20T10:11:57.000Z</time>
      </trkpt>
      <trkpt lat="42.8563" lon="-0.12969">
        <ele>1393</ele>
        <time>2025-03-20T10:12:41.000Z</time>
      </trkpt>
      <trkpt lat="42.85623" lon="-0.12971">
        <ele>1392</ele>
        <time>2025-03-20T10:12:50.000Z</time>
      </trkpt>
      <trkpt lat="42.8561" lon="-0.1298">
        <ele>1393</ele>
        <time>2025-03-20T10:13:16.000Z</time>
      </trkpt>
      <trkpt lat="42.85598" lon="-0.12993">
        <ele>1394</ele>
        <time>2025-03-20T10:13:44.000Z</time>
      </trkpt>
      <trkpt lat="42.85587" lon="-0.13017">
        <ele>1396</ele>
        <time>2025-03-20T10:14:28.000Z</time>
      </trkpt>
      <trkpt lat="42.85557" lon="-0.13061">
        <ele>1402</ele>
        <time>2025-03-20T10:16:20.000Z</time>
      </trkpt>
      <trkpt lat="42.85562" lon="-0.13088">
        <ele>1410</ele>
        <time>2025-03-20T10:18:05.000Z</time>
      </trkpt>
      <trkpt lat="42.85557" lon="-0.13096">
        <ele>1411</ele>
        <time>2025-03-20T10:18:24.000Z</time>
      </trkpt>
      <trkpt lat="42.85548" lon="-0.13104">
        <ele>1410</ele>
        <time>2025-03-20T10:18:36.000Z</time>
      </trkpt>
      <trkpt lat="42.85555" lon="-0.13112">
        <ele>1415</ele>
        <time>2025-03-20T10:19:38.000Z</time>
      </trkpt>
      <trkpt lat="42.85551" lon="-0.13129">
        <ele>1418</ele>
        <time>2025-03-20T10:20:23.000Z</time>
      </trkpt>
      <trkpt lat="42.85541" lon="-0.13135">
        <ele>1418</ele>
        <time>2025-03-20T10:20:36.000Z</time>
      </trkpt>
      <trkpt lat="42.85566" lon="-0.1315">
        <ele>1429</ele>
        <time>2025-03-20T10:23:00.000Z</time>
      </trkpt>
      <trkpt lat="42.85576" lon="-0.13132">
        <ele>1428</ele>
        <time>2025-03-20T10:23:19.000Z</time>
      </trkpt>
      <trkpt lat="42.85592" lon="-0.13133">
        <ele>1436</ele>
        <time>2025-03-20T10:25:00.000Z</time>
      </trkpt>
      <trkpt lat="42.85597" lon="-0.13157">
        <ele>1443</ele>
        <time>2025-03-20T10:26:32.000Z</time>
      </trkpt>
      <trkpt lat="42.85593" lon="-0.1318">
        <ele>1444</ele>
        <time>2025-03-20T10:27:02.000Z</time>
      </trkpt>
      <trkpt lat="42.85587" lon="-0.13191">
        <ele>1443</ele>
        <time>2025-03-20T10:27:13.000Z</time>
      </trkpt>
      <trkpt lat="42.85585" lon="-0.13203">
        <ele>1445</ele>
        <time>2025-03-20T10:27:44.000Z</time>
      </trkpt>
      <trkpt lat="42.85573" lon="-0.13208">
        <ele>1444</ele>
        <time>2025-03-20T10:27:58.000Z</time>
      </trkpt>
      <trkpt lat="42.85559" lon="-0.13214">
        <ele>1444</ele>
        <time>2025-03-20T10:28:14.000Z</time>
      </trkpt>
      <trkpt lat="42.85555" lon="-0.1323">
        <ele>1446</ele>
        <time>2025-03-20T10:28:49.000Z</time>
      </trkpt>
      <trkpt lat="42.85542" lon="-0.13243">
        <ele>1449</ele>
        <time>2025-03-20T10:29:38.000Z</time>
      </trkpt>
      <trkpt lat="42.85529" lon="-0.13232">
        <ele>1444</ele>
        <time>2025-03-20T10:29:56.000Z</time>
      </trkpt>
      <trkpt lat="42.85513" lon="-0.13239">
        <ele>1443</ele>
        <time>2025-03-20T10:30:16.000Z</time>
      </trkpt>
      <trkpt lat="42.85509" lon="-0.13247">
        <ele>1444</ele>
        <time>2025-03-20T10:30:34.000Z</time>
      </trkpt>
      <trkpt lat="42.85498" lon="-0.13257">
        <ele>1444</ele>
        <time>2025-03-20T10:30:50.000Z</time>
      </trkpt>
      <trkpt lat="42.85492" lon="-0.13257">
        <ele>1442</ele>
        <time>2025-03-20T10:30:57.000Z</time>
      </trkpt>
      <trkpt lat="42.85485" lon="-0.13272">
        <ele>1443</ele>
        <time>2025-03-20T10:31:22.000Z</time>
      </trkpt>
      <trkpt lat="42.85478" lon="-0.13272">
        <ele>1443</ele>
        <time>2025-03-20T10:31:30.000Z</time>
      </trkpt>
      <trkpt lat="42.85473" lon="-0.13288">
        <ele>1444</ele>
        <time>2025-03-20T10:31:55.000Z</time>
      </trkpt>
      <trkpt lat="42.85463" lon="-0.133">
        <ele>1444</ele>
        <time>2025-03-20T10:32:10.000Z</time>
      </trkpt>
      <trkpt lat="42.85462" lon="-0.13313">
        <ele>1446</ele>
        <time>2025-03-20T10:32:42.000Z</time>
      </trkpt>
      <trkpt lat="42.85462" lon="-0.13325">
        <ele>1447</ele>
        <time>2025-03-20T10:33:03.000Z</time>
      </trkpt>
      <trkpt lat="42.85457" lon="-0.13347">
        <ele>1449</ele>
        <time>2025-03-20T10:33:43.000Z</time>
      </trkpt>
      <trkpt lat="42.85451" lon="-0.13371">
        <ele>1451</ele>
        <time>2025-03-20T10:34:25.000Z</time>
      </trkpt>
      <trkpt lat="42.85452" lon="-0.13396">
        <ele>1456</ele>
        <time>2025-03-20T10:35:38.000Z</time>
      </trkpt>
      <trkpt lat="42.8544" lon="-0.13413">
        <ele>1456</ele>
        <time>2025-03-20T10:35:57.000Z</time>
      </trkpt>
      <trkpt lat="42.85427" lon="-0.13442">
        <ele>1457</ele>
        <time>2025-03-20T10:36:36.000Z</time>
      </trkpt>
      <trkpt lat="42.85415" lon="-0.13484">
        <ele>1460</ele>
        <time>2025-03-20T10:37:45.000Z</time>
      </trkpt>
      <trkpt lat="42.85404" lon="-0.13489">
        <ele>1459</ele>
        <time>2025-03-20T10:37:58.000Z</time>
      </trkpt>
      <trkpt lat="42.85399" lon="-0.13505">
        <ele>1460</ele>
        <time>2025-03-20T10:38:23.000Z</time>
      </trkpt>
      <trkpt lat="42.85374" lon="-0.13511">
        <ele>1458</ele>
        <time>2025-03-20T10:38:52.000Z</time>
      </trkpt>
      <trkpt lat="42.85379" lon="-0.13527">
        <ele>1462</ele>
        <time>2025-03-20T10:39:48.000Z</time>
      </trkpt>
      <trkpt lat="42.85364" lon="-0.13556">
        <ele>1464</ele>
        <time>2025-03-20T10:40:38.000Z</time>
      </trkpt>
      <trkpt lat="42.85352" lon="-0.13557">
        <ele>1462</ele>
        <time>2025-03-20T10:40:52.000Z</time>
      </trkpt>
      <trkpt lat="42.85345" lon="-0.13601">
        <ele>1465</ele>
        <time>2025-03-20T10:42:01.000Z</time>
      </trkpt>
      <trkpt lat="42.8534" lon="-0.13693">
        <ele>1467</ele>
        <time>2025-03-20T10:43:39.000Z</time>
      </trkpt>
      <trkpt lat="42.85344" lon="-0.13721">
        <ele>1467</ele>
        <time>2025-03-20T10:44:03.000Z</time>
      </trkpt>
      <trkpt lat="42.8534" lon="-0.13741">
        <ele>1465</ele>
        <time>2025-03-20T10:44:20.000Z</time>
      </trkpt>
      <trkpt lat="42.85291" lon="-0.13814">
        <ele>1465</ele>
        <time>2025-03-20T10:45:43.000Z</time>
      </trkpt>
      <trkpt lat="42.85256" lon="-0.13838">
        <ele>1470</ele>
        <time>2025-03-20T10:47:20.000Z</time>
      </trkpt>
      <trkpt lat="42.85192" lon="-0.13862">
        <ele>1478</ele>
        <time>2025-03-20T10:49:58.000Z</time>
      </trkpt>
      <trkpt lat="42.85164" lon="-0.13896">
        <ele>1483</ele>
        <time>2025-03-20T10:51:33.000Z</time>
      </trkpt>
      <trkpt lat="42.85139" lon="-0.13921">
        <ele>1485</ele>
        <time>2025-03-20T10:52:28.000Z</time>
      </trkpt>
      <trkpt lat="42.85131" lon="-0.13927">
        <ele>1485</ele>
        <time>2025-03-20T10:52:38.000Z</time>
      </trkpt>
      <trkpt lat="42.85131" lon="-0.13943">
        <ele>1487</ele>
        <time>2025-03-20T10:53:12.000Z</time>
      </trkpt>
      <trkpt lat="42.85117" lon="-0.13962">
        <ele>1488</ele>
        <time>2025-03-20T10:53:45.000Z</time>
      </trkpt>
      <trkpt lat="42.85104" lon="-0.13979">
        <ele>1490</ele>
        <time>2025-03-20T10:54:27.000Z</time>
      </trkpt>
      <trkpt lat="42.85111" lon="-0.13988">
        <ele>1491</ele>
        <time>2025-03-20T10:54:48.000Z</time>
      </trkpt>
      <trkpt lat="42.85104" lon="-0.13979">
        <ele>1490</ele>
        <time>2025-03-20T10:54:59.000Z</time>
      </trkpt>
      <trkpt lat="42.85117" lon="-0.13962">
        <ele>1488</ele>
        <time>2025-03-20T10:55:20.000Z</time>
      </trkpt>
      <trkpt lat="42.85131" lon="-0.13943">
        <ele>1487</ele>
        <time>2025-03-20T10:55:42.000Z</time>
      </trkpt>
      <trkpt lat="42.85131" lon="-0.13927">
        <ele>1485</ele>
        <time>2025-03-20T10:55:56.000Z</time>
      </trkpt>
      <trkpt lat="42.85139" lon="-0.13921">
        <ele>1485</ele>
        <time>2025-03-20T10:56:06.000Z</time>
      </trkpt>
      <trkpt lat="42.85164" lon="-0.13896">
        <ele>1483</ele>
        <time>2025-03-20T10:56:41.000Z</time>
      </trkpt>
      <trkpt lat="42.85192" lon="-0.13862">
        <ele>1478</ele>
        <time>2025-03-20T10:57:24.000Z</time>
      </trkpt>
      <trkpt lat="42.85256" lon="-0.13838">
        <ele>1470</ele>
        <time>2025-03-20T10:58:40.000Z</time>
      </trkpt>
      <trkpt lat="42.85291" lon="-0.13814">
        <ele>1465</ele>
        <time>2025-03-20T10:59:25.000Z</time>
      </trkpt>
      <trkpt lat="42.8534" lon="-0.13741">
        <ele>1465</ele>
        <time>2025-03-20T11:00:48.000Z</time>
      </trkpt>
      <trkpt lat="42.85344" lon="-0.13721">
        <ele>1467</ele>
        <time>2025-03-20T11:01:25.000Z</time>
      </trkpt>
      <trkpt lat="42.8534" lon="-0.13693">
        <ele>1467</ele>
        <time>2025-03-20T11:01:49.000Z</time>
      </trkpt>
      <trkpt lat="42.85345" lon="-0.13601">
        <ele>1465</ele>
        <time>2025-03-20T11:03:07.000Z</time>
      </trkpt>
      <trkpt lat="42.85352" lon="-0.13557">
        <ele>1462</ele>
        <time>2025-03-20T11:03:45.000Z</time>
      </trkpt>
      <trkpt lat="42.85364" lon="-0.13556">
        <ele>1464</ele>
        <time>2025-03-20T11:04:20.000Z</time>
      </trkpt>
      <trkpt lat="42.85379" lon="-0.13527">
        <ele>1462</ele>
        <time>2025-03-20T11:04:50.000Z</time>
      </trkpt>
      <trkpt lat="42.85374" lon="-0.13511">
        <ele>1458</ele>
        <time>2025-03-20T11:05:05.000Z</time>
      </trkpt>
      <trkpt lat="42.85399" lon="-0.13505">
        <ele>1460</ele>
        <time>2025-03-20T11:05:55.000Z</time>
      </trkpt>
      <trkpt lat="42.85404" lon="-0.13489">
        <ele>1459</ele>
        <time>2025-03-20T11:06:10.000Z</time>
      </trkpt>
      <trkpt lat="42.85415" lon="-0.13484">
        <ele>1460</ele>
        <time>2025-03-20T11:06:33.000Z</time>
      </trkpt>
      <trkpt lat="42.85427" lon="-0.13442">
        <ele>1457</ele>
        <time>2025-03-20T11:07:11.000Z</time>
      </trkpt>
      <trkpt lat="42.8544" lon="-0.13413">
        <ele>1456</ele>
        <time>2025-03-20T11:07:40.000Z</time>
      </trkpt>
      <trkpt lat="42.85452" lon="-0.13396">
        <ele>1456</ele>
        <time>2025-03-20T11:07:59.000Z</time>
      </trkpt>
      <trkpt lat="42.85451" lon="-0.13371">
        <ele>1451</ele>
        <time>2025-03-20T11:08:20.000Z</time>
      </trkpt>
      <trkpt lat="42.85457" lon="-0.13347">
        <ele>1449</ele>
        <time>2025-03-20T11:08:41.000Z</time>
      </trkpt>
      <trkpt lat="42.85462" lon="-0.13325">
        <ele>1447</ele>
        <time>2025-03-20T11:09:00.000Z</time>
      </trkpt>
      <trkpt lat="42.85462" lon="-0.13313">
        <ele>1446</ele>
        <time>2025-03-20T11:09:10.000Z</time>
      </trkpt>
      <trkpt lat="42.85463" lon="-0.133">
        <ele>1444</ele>
        <time>2025-03-20T11:09:21.000Z</time>
      </trkpt>
      <trkpt lat="42.85473" lon="-0.13288">
        <ele>1444</ele>
        <time>2025-03-20T11:09:36.000Z</time>
      </trkpt>
      <trkpt lat="42.85478" lon="-0.13272">
        <ele>1443</ele>
        <time>2025-03-20T11:09:51.000Z</time>
      </trkpt>
      <trkpt lat="42.85485" lon="-0.13272">
        <ele>1443</ele>
        <time>2025-03-20T11:09:59.000Z</time>
      </trkpt>
      <trkpt lat="42.85492" lon="-0.13257">
        <ele>1442</ele>
        <time>2025-03-20T11:10:14.000Z</time>
      </trkpt>
      <trkpt lat="42.85498" lon="-0.13257">
        <ele>1444</ele>
        <time>2025-03-20T11:10:41.000Z</time>
      </trkpt>
      <trkpt lat="42.85509" lon="-0.13247">
        <ele>1444</ele>
        <time>2025-03-20T11:10:57.000Z</time>
      </trkpt>
      <trkpt lat="42.85513" lon="-0.13239">
        <ele>1443</ele>
        <time>2025-03-20T11:11:04.000Z</time>
      </trkpt>
      <trkpt lat="42.85529" lon="-0.13232">
        <ele>1444</ele>
        <time>2025-03-20T11:11:35.000Z</time>
      </trkpt>
      <trkpt lat="42.85542" lon="-0.13243">
        <ele>1449</ele>
        <time>2025-03-20T11:12:44.000Z</time>
      </trkpt>
      <trkpt lat="42.85555" lon="-0.1323">
        <ele>1446</ele>
        <time>2025-03-20T11:13:02.000Z</time>
      </trkpt>
      <trkpt lat="42.85559" lon="-0.13214">
        <ele>1444</ele>
        <time>2025-03-20T11:13:16.000Z</time>
      </trkpt>
      <trkpt lat="42.85573" lon="-0.13208">
        <ele>1444</ele>
        <time>2025-03-20T11:13:32.000Z</time>
      </trkpt>
      <trkpt lat="42.85585" lon="-0.13203">
        <ele>1445</ele>
        <time>2025-03-20T11:13:57.000Z</time>
      </trkpt>
      <trkpt lat="42.85587" lon="-0.13191">
        <ele>1443</ele>
        <time>2025-03-20T11:14:07.000Z</time>
      </trkpt>
      <trkpt lat="42.85593" lon="-0.1318">
        <ele>1444</ele>
        <time>2025-03-20T11:14:29.000Z</time>
      </trkpt>
      <trkpt lat="42.85597" lon="-0.13157">
        <ele>1443</ele>
        <time>2025-03-20T11:14:49.000Z</time>
      </trkpt>
      <trkpt lat="42.85592" lon="-0.13133">
        <ele>1436</ele>
        <time>2025-03-20T11:15:09.000Z</time>
      </trkpt>
      <trkpt lat="42.85576" lon="-0.13132">
        <ele>1428</ele>
        <time>2025-03-20T11:15:27.000Z</time>
      </trkpt>
      <trkpt lat="42.85566" lon="-0.1315">
        <ele>1429</ele>
        <time>2025-03-20T11:15:56.000Z</time>
      </trkpt>
      <trkpt lat="42.85541" lon="-0.13135">
        <ele>1418</ele>
        <time>2025-03-20T11:16:27.000Z</time>
      </trkpt>
      <trkpt lat="42.85551" lon="-0.13129">
        <ele>1418</ele>
        <time>2025-03-20T11:16:40.000Z</time>
      </trkpt>
      <trkpt lat="42.85555" lon="-0.13112">
        <ele>1415</ele>
        <time>2025-03-20T11:16:55.000Z</time>
      </trkpt>
      <trkpt lat="42.85548" lon="-0.13104">
        <ele>1410</ele>
        <time>2025-03-20T11:17:05.000Z</time>
      </trkpt>
      <trkpt lat="42.85557" lon="-0.13096">
        <ele>1411</ele>
        <time>2025-03-20T11:17:27.000Z</time>
      </trkpt>
      <trkpt lat="42.85562" lon="-0.13088">
        <ele>1410</ele>
        <time>2025-03-20T11:17:36.000Z</time>
      </trkpt>
      <trkpt lat="42.85557" lon="-0.13061">
        <ele>1402</ele>
        <time>2025-03-20T11:17:59.000Z</time>
      </trkpt>
      <trkpt lat="42.85587" lon="-0.13017">
        <ele>1396</ele>
        <time>2025-03-20T11:18:50.000Z</time>
      </trkpt>
      <trkpt lat="42.85598" lon="-0.12993">
        <ele>1394</ele>
        <time>2025-03-20T11:19:14.000Z</time>
      </trkpt>
      <trkpt lat="42.8561" lon="-0.1298">
        <ele>1393</ele>
        <time>2025-03-20T11:19:32.000Z</time>
      </trkpt>
      <trkpt lat="42.85623" lon="-0.12971">
        <ele>1392</ele>
        <time>2025-03-20T11:19:48.000Z</time>
      </trkpt>
      <trkpt lat="42.8563" lon="-0.12969">
        <ele>1393</ele>
        <time>2025-03-20T11:20:07.000Z</time>
      </trkpt>
      <trkpt lat="42.85638" lon="-0.12957">
        <ele>1390</ele>
        <time>2025-03-20T11:20:20.000Z</time>
      </trkpt>
      <trkpt lat="42.85651" lon="-0.12944">
        <ele>1388</ele>
        <time>2025-03-20T11:20:39.000Z</time>
      </trkpt>
      <trkpt lat="42.85666" lon="-0.1293">
        <ele>1387</ele>
        <time>2025-03-20T11:21:00.000Z</time>
      </trkpt>
      <trkpt lat="42.85693" lon="-0.12901">
        <ele>1385</ele>
        <time>2025-03-20T11:21:40.000Z</time>
      </trkpt>
      <trkpt lat="42.857" lon="-0.12875">
        <ele>1385</ele>
        <time>2025-03-20T11:22:03.000Z</time>
      </trkpt>
      <trkpt lat="42.85709" lon="-0.12852">
        <ele>1384</ele>
        <time>2025-03-20T11:22:25.000Z</time>
      </trkpt>
      <trkpt lat="42.85726" lon="-0.12814">
        <ele>1385</ele>
        <time>2025-03-20T11:23:12.000Z</time>
      </trkpt>
      <trkpt lat="42.85741" lon="-0.12793">
        <ele>1386</ele>
        <time>2025-03-20T11:23:47.000Z</time>
      </trkpt>
      <trkpt lat="42.85764" lon="-0.12768">
        <ele>1380</ele>
        <time>2025-03-20T11:24:20.000Z</time>
      </trkpt>
      <trkpt lat="42.85782" lon="-0.12736">
        <ele>1374</ele>
        <time>2025-03-20T11:24:54.000Z</time>
      </trkpt>
      <trkpt lat="42.85779" lon="-0.1273">
        <ele>1373</ele>
        <time>2025-03-20T11:25:00.000Z</time>
      </trkpt>
      <trkpt lat="42.85783" lon="-0.12706">
        <ele>1370</ele>
        <time>2025-03-20T11:25:21.000Z</time>
      </trkpt>
      <trkpt lat="42.85789" lon="-0.12726">
        <ele>1372</ele>
        <time>2025-03-20T11:26:00.000Z</time>
      </trkpt>
      <trkpt lat="42.85804" lon="-0.12726">
        <ele>1374</ele>
        <time>2025-03-20T11:26:38.000Z</time>
      </trkpt>
      <trkpt lat="42.85829" lon="-0.1269">
        <ele>1370</ele>
        <time>2025-03-20T11:27:19.000Z</time>
      </trkpt>
      <trkpt lat="42.8584" lon="-0.12679">
        <ele>1370</ele>
        <time>2025-03-20T11:27:35.000Z</time>
      </trkpt>
      <trkpt lat="42.8585" lon="-0.12655">
        <ele>1368</ele>
        <time>2025-03-20T11:27:59.000Z</time>
      </trkpt>
      <trkpt lat="42.85861" lon="-0.12652">
        <ele>1371</ele>
        <time>2025-03-20T11:28:42.000Z</time>
      </trkpt>
      <trkpt lat="42.85865" lon="-0.12646">
        <ele>1369</ele>
        <time>2025-03-20T11:28:49.000Z</time>
      </trkpt>
      <trkpt lat="42.85876" lon="-0.12633">
        <ele>1369</ele>
        <time>2025-03-20T11:29:05.000Z</time>
      </trkpt>
      <trkpt lat="42.85896" lon="-0.12598">
        <ele>1364</ele>
        <time>2025-03-20T11:29:43.000Z</time>
      </trkpt>
      <trkpt lat="42.85913" lon="-0.12587">
        <ele>1364</ele>
        <time>2025-03-20T11:30:05.000Z</time>
      </trkpt>
      <trkpt lat="42.85914" lon="-0.12582">
        <ele>1364</ele>
        <time>2025-03-20T11:30:09.000Z</time>
      </trkpt>
      <trkpt lat="42.85919" lon="-0.1256">
        <ele>1362</ele>
        <time>2025-03-20T11:30:29.000Z</time>
      </trkpt>
      <trkpt lat="42.85934" lon="-0.12544">
        <ele>1361</ele>
        <time>2025-03-20T11:30:51.000Z</time>
      </trkpt>
      <trkpt lat="42.85945" lon="-0.12531">
        <ele>1360</ele>
        <time>2025-03-20T11:31:08.000Z</time>
      </trkpt>
      <trkpt lat="42.85951" lon="-0.12521">
        <ele>1360</ele>
        <time>2025-03-20T11:31:19.000Z</time>
      </trkpt>
      <trkpt lat="42.85955" lon="-0.12505">
        <ele>1358</ele>
        <time>2025-03-20T11:31:34.000Z</time>
      </trkpt>
      <trkpt lat="42.85965" lon="-0.12487">
        <ele>1356</ele>
        <time>2025-03-20T11:31:53.000Z</time>
      </trkpt>
      <trkpt lat="42.85969" lon="-0.12441">
        <ele>1350</ele>
        <time>2025-03-20T11:32:32.000Z</time>
      </trkpt>
      <trkpt lat="42.85974" lon="-0.12473">
        <ele>1354</ele>
        <time>2025-03-20T11:33:40.000Z</time>
      </trkpt>
      <trkpt lat="42.85997" lon="-0.12489">
        <ele>1361</ele>
        <time>2025-03-20T11:35:22.000Z</time>
      </trkpt>
      <trkpt lat="42.86011" lon="-0.12494">
        <ele>1366</ele>
        <time>2025-03-20T11:36:31.000Z</time>
      </trkpt>
      <trkpt lat="42.8602" lon="-0.12481">
        <ele>1362</ele>
        <time>2025-03-20T11:36:46.000Z</time>
      </trkpt>
      <trkpt lat="42.8603" lon="-0.12475">
        <ele>1363</ele>
        <time>2025-03-20T11:37:09.000Z</time>
      </trkpt>
      <trkpt lat="42.86041" lon="-0.12471">
        <ele>1364</ele>
        <time>2025-03-20T11:37:32.000Z</time>
      </trkpt>
      <trkpt lat="42.8605" lon="-0.12456">
        <ele>1360</ele>
        <time>2025-03-20T11:37:48.000Z</time>
      </trkpt>
      <trkpt lat="42.86055" lon="-0.1244">
        <ele>1354</ele>
        <time>2025-03-20T11:38:03.000Z</time>
      </trkpt>
      <trkpt lat="42.86057" lon="-0.12431">
        <ele>1350</ele>
        <time>2025-03-20T11:38:11.000Z</time>
      </trkpt>
      <trkpt lat="42.86063" lon="-0.12399">
        <ele>1340</ele>
        <time>2025-03-20T11:38:39.000Z</time>
      </trkpt>
      <trkpt lat="42.8607" lon="-0.12388">
        <ele>1337</ele>
        <time>2025-03-20T11:38:51.000Z</time>
      </trkpt>
      <trkpt lat="42.86088" lon="-0.12365">
        <ele>1332</ele>
        <time>2025-03-20T11:39:19.000Z</time>
      </trkpt>
      <trkpt lat="42.86101" lon="-0.12365">
        <ele>1330</ele>
        <time>2025-03-20T11:39:34.000Z</time>
      </trkpt>
      <trkpt lat="42.86114" lon="-0.12357">
        <ele>1326</ele>
        <time>2025-03-20T11:39:51.000Z</time>
      </trkpt>
      <trkpt lat="42.86169" lon="-0.12364">
        <ele>1328</ele>
        <time>2025-03-20T11:41:14.000Z</time>
      </trkpt>
      <trkpt lat="42.86173" lon="-0.12356">
        <ele>1320</ele>
        <time>2025-03-20T11:41:23.000Z</time>
      </trkpt>
      <trkpt lat="42.8618" lon="-0.12352">
        <ele>1319</ele>
        <time>2025-03-20T11:41:31.000Z</time>
      </trkpt>
      <trkpt lat="42.86213" lon="-0.12341">
        <ele>1318</ele>
        <time>2025-03-20T11:42:09.000Z</time>
      </trkpt>
      <trkpt lat="42.86229" lon="-0.12325">
        <ele>1315</ele>
        <time>2025-03-20T11:42:32.000Z</time>
      </trkpt>
      <trkpt lat="42.86238" lon="-0.12313">
        <ele>1315</ele>
        <time>2025-03-20T11:42:47.000Z</time>
      </trkpt>
      <trkpt lat="42.86229" lon="-0.12276">
        <ele>1299</ele>
        <time>2025-03-20T11:43:20.000Z</time>
      </trkpt>
      <trkpt lat="42.86238" lon="-0.12269">
        <ele>1296</ele>
        <time>2025-03-20T11:43:31.000Z</time>
      </trkpt>
      <trkpt lat="42.86241" lon="-0.1226">
        <ele>1293</ele>
        <time>2025-03-20T11:43:40.000Z</time>
      </trkpt>
      <trkpt lat="42.86235" lon="-0.12247">
        <ele>1290</ele>
        <time>2025-03-20T11:43:53.000Z</time>
      </trkpt>
      <trkpt lat="42.86245" lon="-0.12249">
        <ele>1291</ele>
        <time>2025-03-20T11:44:15.000Z</time>
      </trkpt>
      <trkpt lat="42.86249" lon="-0.12243">
        <ele>1290</ele>
        <time>2025-03-20T11:44:22.000Z</time>
      </trkpt>
      <trkpt lat="42.86267" lon="-0.12231">
        <ele>1290</ele>
        <time>2025-03-20T11:44:44.000Z</time>
      </trkpt>
      <trkpt lat="42.86282" lon="-0.12216">
        <ele>1290</ele>
        <time>2025-03-20T11:45:06.000Z</time>
      </trkpt>
      <trkpt lat="42.86281" lon="-0.12172">
        <ele>1282</ele>
        <time>2025-03-20T11:45:43.000Z</time>
      </trkpt>
      <trkpt lat="42.86284" lon="-0.12158">
        <ele>1282</ele>
        <time>2025-03-20T11:45:55.000Z</time>
      </trkpt>
      <trkpt lat="42.86279" lon="-0.12154">
        <ele>1280</ele>
        <time>2025-03-20T11:46:02.000Z</time>
      </trkpt>
      <trkpt lat="42.86277" lon="-0.12128">
        <ele>1277</ele>
        <time>2025-03-20T11:46:25.000Z</time>
      </trkpt>
      <trkpt lat="42.86285" lon="-0.12116">
        <ele>1278</ele>
        <time>2025-03-20T11:46:48.000Z</time>
      </trkpt>
      <trkpt lat="42.86289" lon="-0.12113">
        <ele>1279</ele>
        <time>2025-03-20T11:47:04.000Z</time>
      </trkpt>
      <trkpt lat="42.86293" lon="-0.12112">
        <ele>1280</ele>
        <time>2025-03-20T11:47:18.000Z</time>
      </trkpt>
      <trkpt lat="42.86304" lon="-0.12085">
        <ele>1277</ele>
        <time>2025-03-20T11:47:43.000Z</time>
      </trkpt>
      <trkpt lat="42.86274" lon="-0.12063">
        <ele>1264</ele>
        <time>2025-03-20T11:48:22.000Z</time>
      </trkpt>
      <trkpt lat="42.86259" lon="-0.11934">
        <ele>1258</ele>
        <time>2025-03-20T11:50:12.000Z</time>
      </trkpt>
      <trkpt lat="42.86274" lon="-0.12055">
        <ele>1263</ele>
        <time>2025-03-20T11:52:47.000Z</time>
      </trkpt>
      <trkpt lat="42.86287" lon="-0.12063">
        <ele>1268</ele>
        <time>2025-03-20T11:53:55.000Z</time>
      </trkpt>
      <trkpt lat="42.86315" lon="-0.12056">
        <ele>1274</ele>
        <time>2025-03-20T11:55:30.000Z</time>
      </trkpt>
      <trkpt lat="42.86322" lon="-0.12036">
        <ele>1271</ele>
        <time>2025-03-20T11:55:48.000Z</time>
      </trkpt>
      <trkpt lat="42.86331" lon="-0.12024">
        <ele>1269</ele>
        <time>2025-03-20T11:56:02.000Z</time>
      </trkpt>
      <trkpt lat="42.86334" lon="-0.12014">
        <ele>1265</ele>
        <time>2025-03-20T11:56:10.000Z</time>
      </trkpt>
      <trkpt lat="42.86336" lon="-0.1199">
        <ele>1258</ele>
        <time>2025-03-20T11:56:30.000Z</time>
      </trkpt>
      <trkpt lat="42.86345" lon="-0.11967">
        <ele>1250</ele>
        <time>2025-03-20T11:56:52.000Z</time>
      </trkpt>
      <trkpt lat="42.86347" lon="-0.11956">
        <ele>1248</ele>
        <time>2025-03-20T11:57:01.000Z</time>
      </trkpt>
      <trkpt lat="42.86351" lon="-0.11955">
        <ele>1249</ele>
        <time>2025-03-20T11:57:16.000Z</time>
      </trkpt>
      <trkpt lat="42.8637" lon="-0.11948">
        <ele>1249</ele>
        <time>2025-03-20T11:57:39.000Z</time>
      </trkpt>
      <trkpt lat="42.86387" lon="-0.11945">
        <ele>1250</ele>
        <time>2025-03-20T11:58:09.000Z</time>
      </trkpt>
      <trkpt lat="42.86393" lon="-0.11934">
        <ele>1246</ele>
        <time>2025-03-20T11:58:20.000Z</time>
      </trkpt>
      <trkpt lat="42.86399" lon="-0.11936">
        <ele>1249</ele>
        <time>2025-03-20T11:58:58.000Z</time>
      </trkpt>
      <trkpt lat="42.8641" lon="-0.11929">
        <ele>1246</ele>
        <time>2025-03-20T11:59:12.000Z</time>
      </trkpt>
      <trkpt lat="42.86413" lon="-0.11924">
        <ele>1245</ele>
        <time>2025-03-20T11:59:16.000Z</time>
      </trkpt>
      <trkpt lat="42.86414" lon="-0.11915">
        <ele>1240</ele>
        <time>2025-03-20T11:59:24.000Z</time>
      </trkpt>
      <trkpt lat="42.86405" lon="-0.11912">
        <ele>1239</ele>
        <time>2025-03-20T11:59:34.000Z</time>
      </trkpt>
      <trkpt lat="42.86391" lon="-0.11905">
        <ele>1235</ele>
        <time>2025-03-20T11:59:51.000Z</time>
      </trkpt>
      <trkpt lat="42.86397" lon="-0.11896">
        <ele>1233</ele>
        <time>2025-03-20T12:00:01.000Z</time>
      </trkpt>
      <trkpt lat="42.8641" lon="-0.11879">
        <ele>1229</ele>
        <time>2025-03-20T12:00:21.000Z</time>
      </trkpt>
      <trkpt lat="42.86428" lon="-0.11869">
        <ele>1228</ele>
        <time>2025-03-20T12:00:43.000Z</time>
      </trkpt>
      <trkpt lat="42.86429" lon="-0.11865">
        <ele>1227</ele>
        <time>2025-03-20T12:00:47.000Z</time>
      </trkpt>
      <trkpt lat="42.86429" lon="-0.1185">
        <ele>1224</ele>
        <time>2025-03-20T12:00:59.000Z</time>
      </trkpt>
      <trkpt lat="42.86446" lon="-0.11836">
        <ele>1220</ele>
        <time>2025-03-20T12:01:22.000Z</time>
      </trkpt>
      <trkpt lat="42.86454" lon="-0.11841">
        <ele>1223</ele>
        <time>2025-03-20T12:02:03.000Z</time>
      </trkpt>
      <trkpt lat="42.86459" lon="-0.11842">
        <ele>1225</ele>
        <time>2025-03-20T12:02:29.000Z</time>
      </trkpt>
      <trkpt lat="42.86469" lon="-0.11844">
        <ele>1230</ele>
        <time>2025-03-20T12:03:31.000Z</time>
      </trkpt>
      <trkpt lat="42.86493" lon="-0.11848">
        <ele>1242</ele>
        <time>2025-03-20T12:06:03.000Z</time>
      </trkpt>
      <trkpt lat="42.86497" lon="-0.11844">
        <ele>1241</ele>
        <time>2025-03-20T12:06:08.000Z</time>
      </trkpt>
      <trkpt lat="42.86513" lon="-0.11827">
        <ele>1238</ele>
        <time>2025-03-20T12:06:31.000Z</time>
      </trkpt>
      <trkpt lat="42.86521" lon="-0.11794">
        <ele>1231</ele>
        <time>2025-03-20T12:07:00.000Z</time>
      </trkpt>
      <trkpt lat="42.8652" lon="-0.11785">
        <ele>1227</ele>
        <time>2025-03-20T12:07:08.000Z</time>
      </trkpt>
      <trkpt lat="42.86518" lon="-0.11777">
        <ele>1223</ele>
        <time>2025-03-20T12:07:15.000Z</time>
      </trkpt>
      <trkpt lat="42.86525" lon="-0.11762">
        <ele>1221</ele>
        <time>2025-03-20T12:07:30.000Z</time>
      </trkpt>
      <trkpt lat="42.8654" lon="-0.11753">
        <ele>1229</ele>
        <time>2025-03-20T12:09:11.000Z</time>
      </trkpt>
      <trkpt lat="42.86544" lon="-0.11727">
        <ele>1216</ele>
        <time>2025-03-20T12:09:33.000Z</time>
      </trkpt>
      <trkpt lat="42.86548" lon="-0.11709">
        <ele>1211</ele>
        <time>2025-03-20T12:09:49.000Z</time>
      </trkpt>
      <trkpt lat="42.86552" lon="-0.11705">
        <ele>1212</ele>
        <time>2025-03-20T12:10:04.000Z</time>
      </trkpt>
      <trkpt lat="42.86559" lon="-0.11687">
        <ele>1205</ele>
        <time>2025-03-20T12:10:22.000Z</time>
      </trkpt>
      <trkpt lat="42.86564" lon="-0.11674">
        <ele>1200</ele>
        <time>2025-03-20T12:10:34.000Z</time>
      </trkpt>
      <trkpt lat="42.86584" lon="-0.11678">
        <ele>1204</ele>
        <time>2025-03-20T12:11:38.000Z</time>
      </trkpt>
      <trkpt lat="42.866" lon="-0.11676">
        <ele>1207</ele>
        <time>2025-03-20T12:12:28.000Z</time>
      </trkpt>
      <trkpt lat="42.86617" lon="-0.11669">
        <ele>1203</ele>
        <time>2025-03-20T12:12:48.000Z</time>
      </trkpt>
      <trkpt lat="42.86634" lon="-0.11651">
        <ele>1194</ele>
        <time>2025-03-20T12:13:13.000Z</time>
      </trkpt>
      <trkpt lat="42.86647" lon="-0.11646">
        <ele>1191</ele>
        <time>2025-03-20T12:13:29.000Z</time>
      </trkpt>
      <trkpt lat="42.86655" lon="-0.11628">
        <ele>1182</ele>
        <time>2025-03-20T12:13:46.000Z</time>
      </trkpt>
      <trkpt lat="42.86659" lon="-0.11628">
        <ele>1182</ele>
        <time>2025-03-20T12:13:50.000Z</time>
      </trkpt>
      <trkpt lat="42.86672" lon="-0.11627">
        <ele>1184</ele>
        <time>2025-03-20T12:14:25.000Z</time>
      </trkpt>
      <trkpt lat="42.8668" lon="-0.11618">
        <ele>1182</ele>
        <time>2025-03-20T12:14:37.000Z</time>
      </trkpt>
      <trkpt lat="42.86691" lon="-0.11607">
        <ele>1180</ele>
        <time>2025-03-20T12:14:53.000Z</time>
      </trkpt>
      <trkpt lat="42.86697" lon="-0.11595">
        <ele>1179</ele>
        <time>2025-03-20T12:15:05.000Z</time>
      </trkpt>
      <trkpt lat="42.86701" lon="-0.11586">
        <ele>1175</ele>
        <time>2025-03-20T12:15:14.000Z</time>
      </trkpt>
      <trkpt lat="42.86717" lon="-0.11573">
        <ele>1178</ele>
        <time>2025-03-20T12:16:06.000Z</time>
      </trkpt>
      <trkpt lat="42.86725" lon="-0.1156">
        <ele>1177</ele>
        <time>2025-03-20T12:16:20.000Z</time>
      </trkpt>
      <trkpt lat="42.8673" lon="-0.11549">
        <ele>1175</ele>
        <time>2025-03-20T12:16:31.000Z</time>
      </trkpt>
      <trkpt lat="42.86734" lon="-0.11532">
        <ele>1172</ele>
        <time>2025-03-20T12:16:46.000Z</time>
      </trkpt>
      <trkpt lat="42.86741" lon="-0.11521">
        <ele>1170</ele>
        <time>2025-03-20T12:16:58.000Z</time>
      </trkpt>
      <trkpt lat="42.86747" lon="-0.11516">
        <ele>1170</ele>
        <time>2025-03-20T12:17:05.000Z</time>
      </trkpt>
      <trkpt lat="42.86746" lon="-0.115">
        <ele>1165</ele>
        <time>2025-03-20T12:17:19.000Z</time>
      </trkpt>
      <trkpt lat="42.86749" lon="-0.11494">
        <ele>1164</ele>
        <time>2025-03-20T12:17:26.000Z</time>
      </trkpt>
      <trkpt lat="42.86757" lon="-0.11484">
        <ele>1163</ele>
        <time>2025-03-20T12:17:38.000Z</time>
      </trkpt>
      <trkpt lat="42.86759" lon="-0.11473">
        <ele>1160</ele>
        <time>2025-03-20T12:17:47.000Z</time>
      </trkpt>
      <trkpt lat="42.86776" lon="-0.11448">
        <ele>1155</ele>
        <time>2025-03-20T12:18:16.000Z</time>
      </trkpt>
      <trkpt lat="42.86785" lon="-0.11451">
        <ele>1155</ele>
        <time>2025-03-20T12:18:27.000Z</time>
      </trkpt>
      <trkpt lat="42.86795" lon="-0.11451">
        <ele>1154</ele>
        <time>2025-03-20T12:18:39.000Z</time>
      </trkpt>
      <trkpt lat="42.86803" lon="-0.11453">
        <ele>1156</ele>
        <time>2025-03-20T12:19:08.000Z</time>
      </trkpt>
      <trkpt lat="42.86814" lon="-0.11457">
        <ele>1156</ele>
        <time>2025-03-20T12:19:21.000Z</time>
      </trkpt>
      <trkpt lat="42.86817" lon="-0.11453">
        <ele>1155</ele>
        <time>2025-03-20T12:19:25.000Z</time>
      </trkpt>
      <trkpt lat="42.86821" lon="-0.11448">
        <ele>1154</ele>
        <time>2025-03-20T12:19:32.000Z</time>
      </trkpt>
      <trkpt lat="42.86826" lon="-0.11432">
        <ele>1147</ele>
        <time>2025-03-20T12:19:46.000Z</time>
      </trkpt>
      <trkpt lat="42.86835" lon="-0.11427">
        <ele>1145</ele>
        <time>2025-03-20T12:19:57.000Z</time>
      </trkpt>
      <trkpt lat="42.86841" lon="-0.11426">
        <ele>1146</ele>
        <time>2025-03-20T12:20:15.000Z</time>
      </trkpt>
      <trkpt lat="42.8685" lon="-0.11424">
        <ele>1145</ele>
        <time>2025-03-20T12:20:25.000Z</time>
      </trkpt>
      <trkpt lat="42.86857" lon="-0.1142">
        <ele>1142</ele>
        <time>2025-03-20T12:20:33.000Z</time>
      </trkpt>
      <trkpt lat="42.86865" lon="-0.11409">
        <ele>1138</ele>
        <time>2025-03-20T12:20:47.000Z</time>
      </trkpt>
      <trkpt lat="42.86877" lon="-0.11407">
        <ele>1137</ele>
        <time>2025-03-20T12:21:01.000Z</time>
      </trkpt>
      <trkpt lat="42.86909" lon="-0.11402">
        <ele>1134</ele>
        <time>2025-03-20T12:21:38.000Z</time>
      </trkpt>
      <trkpt lat="42.86943" lon="-0.11393">
        <ele>1133</ele>
        <time>2025-03-20T12:22:17.000Z</time>
      </trkpt>
      <trkpt lat="42.86961" lon="-0.11385">
        <ele>1132</ele>
        <time>2025-03-20T12:22:39.000Z</time>
      </trkpt>
      <trkpt lat="42.86973" lon="-0.11376">
        <ele>1131</ele>
        <time>2025-03-20T12:22:55.000Z</time>
      </trkpt>
      <trkpt lat="42.86982" lon="-0.11365">
        <ele>1130</ele>
        <time>2025-03-20T12:23:09.000Z</time>
      </trkpt>
      <trkpt lat="42.86997" lon="-0.11352">
        <ele>1131</ele>
        <time>2025-03-20T12:23:39.000Z</time>
      </trkpt>
      <trkpt lat="42.87022" lon="-0.11328">
        <ele>1129</ele>
        <time>2025-03-20T12:24:14.000Z</time>
      </trkpt>
      <trkpt lat="42.87031" lon="-0.11315">
        <ele>1128</ele>
        <time>2025-03-20T12:24:29.000Z</time>
      </trkpt>
      <trkpt lat="42.87036" lon="-0.113">
        <ele>1125</ele>
        <time>2025-03-20T12:24:42.000Z</time>
      </trkpt>
      <trkpt lat="42.87034" lon="-0.11288">
        <ele>1121</ele>
        <time>2025-03-20T12:24:52.000Z</time>
      </trkpt>
      <trkpt lat="42.87028" lon="-0.11272">
        <ele>1118</ele>
        <time>2025-03-20T12:25:08.000Z</time>
      </trkpt>
      <trkpt lat="42.8703" lon="-0.11258">
        <ele>1114</ele>
        <time>2025-03-20T12:25:20.000Z</time>
      </trkpt>
      <trkpt lat="42.87037" lon="-0.11253">
        <ele>1113</ele>
        <time>2025-03-20T12:25:29.000Z</time>
      </trkpt>
      <trkpt lat="42.87059" lon="-0.11238">
        <ele>1107</ele>
        <time>2025-03-20T12:25:56.000Z</time>
      </trkpt>
      <trkpt lat="42.87067" lon="-0.11226">
        <ele>1105</ele>
        <time>2025-03-20T12:26:10.000Z</time>
      </trkpt>
      <trkpt lat="42.87105" lon="-0.11185">
        <ele>1087</ele>
        <time>2025-03-20T12:27:05.000Z</time>
      </trkpt>
      <trkpt lat="42.87122" lon="-0.11191">
        <ele>1090</ele>
        <time>2025-03-20T12:27:56.000Z</time>
      </trkpt>
      <trkpt lat="42.87133" lon="-0.11189">
        <ele>1090</ele>
        <time>2025-03-20T12:28:08.000Z</time>
      </trkpt>
      <trkpt lat="42.8714" lon="-0.11181">
        <ele>1088</ele>
        <time>2025-03-20T12:28:19.000Z</time>
      </trkpt>
      <trkpt lat="42.87152" lon="-0.1117">
        <ele>1086</ele>
        <time>2025-03-20T12:28:35.000Z</time>
      </trkpt>
      <trkpt lat="42.87166" lon="-0.11154">
        <ele>1081</ele>
        <time>2025-03-20T12:28:56.000Z</time>
      </trkpt>
      <trkpt lat="42.87192" lon="-0.1113">
        <ele>1077</ele>
        <time>2025-03-20T12:29:32.000Z</time>
      </trkpt>
      <trkpt lat="42.87191" lon="-0.11121">
        <ele>1072</ele>
        <time>2025-03-20T12:29:39.000Z</time>
      </trkpt>
      <trkpt lat="42.87173" lon="-0.11123">
        <ele>1069</ele>
        <time>2025-03-20T12:30:00.000Z</time>
      </trkpt>
      <trkpt lat="42.87192" lon="-0.11102">
        <ele>1067</ele>
        <time>2025-03-20T12:30:28.000Z</time>
      </trkpt>
      <trkpt lat="42.87201" lon="-0.11077">
        <ele>1062</ele>
        <time>2025-03-20T12:30:51.000Z</time>
      </trkpt>
      <trkpt lat="42.87209" lon="-0.1107">
        <ele>1062</ele>
        <time>2025-03-20T12:31:02.000Z</time>
      </trkpt>
      <trkpt lat="42.87226" lon="-0.11054">
        <ele>1061</ele>
        <time>2025-03-20T12:31:26.000Z</time>
      </trkpt>
      <trkpt lat="42.87234" lon="-0.11024">
        <ele>1056</ele>
        <time>2025-03-20T12:31:52.000Z</time>
      </trkpt>
      <trkpt lat="42.8723" lon="-0.11006">
        <ele>1051</ele>
        <time>2025-03-20T12:32:09.000Z</time>
      </trkpt>
      <trkpt lat="42.87227" lon="-0.10993">
        <ele>1048</ele>
        <time>2025-03-20T12:32:20.000Z</time>
      </trkpt>
      <trkpt lat="42.87239" lon="-0.10959">
        <ele>1041</ele>
        <time>2025-03-20T12:32:52.000Z</time>
      </trkpt>
      <trkpt lat="42.87258" lon="-0.10951">
        <ele>1039</ele>
        <time>2025-03-20T12:33:15.000Z</time>
      </trkpt>
      <trkpt lat="42.87292" lon="-0.1095">
        <ele>1042</ele>
        <time>2025-03-20T12:34:25.000Z</time>
      </trkpt>
      <trkpt lat="42.87332" lon="-0.10927">
        <ele>1040</ele>
        <time>2025-03-20T12:35:15.000Z</time>
      </trkpt>
      <trkpt lat="42.87362" lon="-0.1093">
        <ele>1041</ele>
        <time>2025-03-20T12:36:00.000Z</time>
      </trkpt>
      <trkpt lat="42.87409" lon="-0.10974">
        <ele>1042</ele>
        <time>2025-03-20T12:37:16.000Z</time>
      </trkpt>
      <trkpt lat="42.87407" lon="-0.10955">
        <ele>1039</ele>
        <time>2025-03-20T12:37:32.000Z</time>
      </trkpt>
      <trkpt lat="42.87407" lon="-0.10911">
        <ele>1036</ele>
        <time>2025-03-20T12:38:09.000Z</time>
      </trkpt>
    </trkseg>
  </trk>
</gpx>